Main page
METAR-TAF:

METAR-TAF

Airports :

Marham, England

RAF Marham

latitude: 52-39N, longitude: 000-34E, elevation: 23 m

Current weather observation

The report was made 45 minutes ago, at 20:50 UTC
Wind 15 kt from the Southwest
Temperature 10°C
Humidity 87%
Pressure 1011 hPa
Visibility 10 km or more
no clouds below 1500 m and no cumulonimbus

METAR: EGYM 232050Z 22015KT CAVOK 10/08 Q1011 BLU

Time: 21:35 (21:35 UTC)

Forecast

The report was made 4 hours and 40 minutes ago, at 16:55 UTC
Forecast valid from 23 at 18 UTC to 23 at 24 UTC
Wind 15 kt from the Southwest
Visibility 10 km or more
Scattered clouds at a height of 2500 ft
Temporary
from 23 at 18 UTC to 23 at 20 UTC
Broken clouds at a height of 1500 ft
light rain

TAF: EGYM 231655Z 2318/2324 22015KT 9999 SCT025 TEMPO 2318/2320 -RA BKN015

Weather observations and forecasts of more than 4000 airports (METAR and TAF reports).

The available stations are represented by yellow and red dots on the map.

Hover mouse over dot to see the name of the station.

Then click to see weather observations and forecasts.

To change the map : click on the green buttons with a black cross to zoom in, on the green button with a dash to zoom out, or on the green arrows for adjacent maps.


METAR-TAF: